This is the latest recevied weather packets stored in our database for station/object KC3QLX. If no packets are shown the sender has not sent any weather packets the latest 10 day(s).
| Time | Temp. | Humidity | Pressure | Rain* | Wind** | Luminosity | Snow |
|---|---|---|---|---|---|---|---|
| 1778254720 | 14.44° C | 53% | 1012.9 hPa | 0 mm | - | 793 W/m² | - |
| 1778254418 | 13.89° C | 52% | 1012.8 hPa | 0 mm | - | 801 W/m² | - |
| 1778254113 | 13.89° C | 56% | 1013 hPa | 0 mm | - | 804 W/m² | - |
| 1778253810 | 13.89° C | 57% | 1013.1 hPa | 0 mm | - | 829 W/m² | - |
| 1778253506 | 13.89° C | 58% | 1013.3 hPa | 0 mm | - | 792 W/m² | - |
| 1778253204 | 12.78° C | 60% | 1013.4 hPa | 0 mm | - | 801 W/m² | - |
| 1778252900 | 12.22° C | 61% | 1013.4 hPa | 0 mm | - | 760 W/m² | - |
| 1778252597 | 11.67° C | 67% | 1013.6 hPa | 0 mm | - | 953 W/m² | - |
| 1778252293 | 11.67° C | 66% | 1013.7 hPa | 0 mm | - | 298 W/m² | - |
| 1778251989 | 11.67° C | 69% | 1013.7 hPa | 0 mm | - | 297 W/m² | - |
| 1778251686 | 11.67° C | 67% | 1013.6 hPa | 0 mm | - | 707 W/m² | - |
| 1778251384 | 11.67° C | 73% | 1013.8 hPa | 0 mm | - | 373 W/m² | - |
| 1778251082 | 10.56° C | 77% | 1013.8 hPa | 0 mm | - | 930 W/m² | - |
| 1778250778 | 10° C | 80% | 1013.9 hPa | 0 mm | - | 285 W/m² | - |
| 1778250475 | 10° C | 80% | 1013.9 hPa | 0 mm | - | 191 W/m² | - |
| 1778250172 | 9.44° C | 83% | 1013.9 hPa | 0 mm | - | 168 W/m² | - |
| 1778249868 | 9.44° C | 83% | 1013.9 hPa | 0 mm | - | 101 W/m² | - |
| 1778249566 | 9.44° C | 83% | 1014 hPa | 0 mm | - | 78 W/m² | - |
| 1778249263 | 8.89° C | 82% | 1014 hPa | 0 mm | - | 79 W/m² | - |
| 1778248960 | 9.44° C | 84% | 1014.2 hPa | 0 mm | - | 59 W/m² | - |
| 1778248656 | 8.89° C | 84% | 1014 hPa | 0 mm | - | 78 W/m² | - |
| 1778248047 | 8.89° C | 84% | 1014.1 hPa | 0 mm | - | 78 W/m² | - |
| 1778247745 | 9.44° C | 85% | 1014.1 hPa | 0 mm | - | 160 W/m² | - |
| 1778247442 | 8.89° C | 86% | 1014 hPa | 0 mm | - | 116 W/m² | - |
| 1778247139 | 8.89° C | 87% | 1014.1 hPa | 0 mm | - | 94 W/m² | - |
* Rain latest hour (hover to see other rain measurements)
** Current wind speed in m/s (hover to see current wind gust speed)